Time;durP1;ratioP1;P1;durP2;ratioP2;P2;SDS_P1;SDS_P2;PMS_P1;PMS_P2;Temp;Humidity;BMP_temperature;BMP_pressure;BME280_temperature;BME280_humidity;BME280_pressure;Samples;Min_cycle;Max_cycle;Signal;HPM_P1;HPM_P2
2022/10/15 00:02:08;;;;;;;28.42;17.25;;;13.60;99.60;;;;;;5073475;28;20103;-80
2022/10/15 00:04:34;;;;;;;30.42;17.33;;;13.60;99.70;;;;;;5067658;28;20123;-82
2022/10/15 00:06:59;;;;;;;32.35;17.65;;;13.60;99.70;;;;;;5068289;28;20032;-82
2022/10/15 00:09:25;;;;;;;31.42;18.75;;;13.60;99.70;;;;;;5060128;28;20164;-81
2022/10/15 00:11:51;;;;;;;32.53;17.63;;;13.60;99.70;;;;;;5070271;28;20060;-81
2022/10/15 00:14:16;;;;;;;31.13;17.98;;;13.60;99.70;;;;;;5072244;28;20110;-81
2022/10/15 00:16:42;;;;;;;36.05;17.58;;;13.60;99.80;;;;;;5051942;28;20029;-82
2022/10/15 00:19:09;;;;;;;32.92;17.58;;;13.60;99.80;;;;;;5058939;28;20032;-81
2022/10/15 00:21:35;;;;;;;34.08;18.27;;;13.60;99.80;;;;;;5068548;28;20152;-81
2022/10/15 00:24:01;;;;;;;32.70;19.27;;;13.60;99.80;;;;;;5068092;28;20447;-81
2022/10/15 00:26:28;;;;;;;33.03;18.98;;;13.60;99.90;;;;;;5067344;28;20033;-81
2022/10/15 00:28:56;;;;;;;35.00;18.13;;;13.60;99.90;;;;;;5070713;28;20199;-81
2022/10/15 00:31:23;;;;;;;35.05;19.02;;;13.60;99.90;;;;;;5076624;28;20028;-81
2022/10/15 00:33:50;;;;;;;36.88;19.73;;;13.60;99.90;;;;;;5073196;28;20332;-81
2022/10/15 00:36:18;;;;;;;39.78;21.05;;;13.60;99.90;;;;;;5076306;28;20023;-81
2022/10/15 00:38:44;;;;;;;39.13;20.80;;;13.60;99.90;;;;;;5072021;28;20422;-82
2022/10/15 00:41:16;;;;;;;43.05;23.20;;;13.60;99.90;;;;;;5066657;28;20028;-81
2022/10/15 00:43:50;;;;;;;43.70;21.95;;;13.60;99.90;;;;;;5059651;28;20373;-82
2022/10/15 00:46:33;;;;;;;44.10;22.58;;;13.60;99.90;;;;;;5055551;28;20054;-81
2022/10/15 00:49:02;;;;;;;43.08;22.35;;;13.60;99.90;;;;;;5062312;28;20103;-81
2022/10/15 00:51:34;;;;;;;51.15;25.45;;;13.50;99.90;;;;;;5074570;28;20025;-80
2022/10/15 00:54:00;;;;;;;51.78;25.13;;;13.50;99.90;;;;;;5063562;28;20368;-81
2022/10/15 00:56:29;;;;;;;50.63;24.98;;;13.50;99.90;;;;;;5066972;28;20104;-81
2022/10/15 00:58:55;;;;;;;51.15;25.73;;;13.50;99.80;;;;;;5075509;28;20432;-81
2022/10/15 01:01:24;;;;;;;48.05;26.40;;;13.50;99.80;;;;;;5067882;28;20348;-81
2022/10/15 01:03:50;;;;;;;48.45;25.30;;;13.40;99.60;;;;;;5067239;28;20059;-82
2022/10/15 01:06:16;;;;;;;52.05;27.50;;;13.40;99.60;;;;;;5081446;28;20027;-81
2022/10/15 01:08:42;;;;;;;54.13;27.23;;;13.40;99.50;;;;;;5086643;28;20020;-81
2022/10/15 01:11:19;;;;;;;51.53;27.23;;;13.20;99.10;;;;;;5074446;28;20105;-81
2022/10/15 01:14:12;;;;;;;46.30;24.77;;;13.10;99.10;;;;;;5063314;28;20091;-81
2022/10/15 01:16:54;;;;;;;44.97;24.80;;;13.10;98.90;;;;;;5078203;28;20349;-82
2022/10/15 01:19:41;;;;;;;44.58;25.77;;;13.00;98.80;;;;;;5063671;28;20024;-81
2022/10/15 01:22:15;;;;;;;46.25;24.10;;;12.90;98.60;;;;;;5060268;28;20406;-81
2022/10/15 01:25:04;;;;;;;45.20;25.38;;;12.90;98.50;;;;;;5065805;28;20115;-81
2022/10/15 01:27:44;;;;;;;48.35;24.55;;;12.80;98.40;;;;;;5060991;28;20108;-81
2022/10/15 01:30:30;;;;;;;45.37;24.23;;;12.80;98.30;;;;;;5070201;28;20078;-82
2022/10/15 01:33:27;;;;;;;41.35;22.42;;;12.70;98.00;;;;;;5065973;28;20776;-81
2022/10/15 01:36:08;;;;;;;37.22;21.58;;;12.60;97.90;;;;;;5045879;28;20036;-82
2022/10/15 01:39:14;;;;;;;40.58;22.48;;;12.60;97.80;;;;;;5050122;28;20101;-81
2022/10/15 01:41:43;;;;;;;41.70;22.15;;;12.50;97.90;;;;;;5051356;28;20049;-81
2022/10/15 01:44:22;;;;;;;45.97;23.33;;;12.50;98.00;;;;;;5056752;28;20037;-82
2022/10/15 01:46:53;;;;;;;49.47;23.58;;;12.40;98.10;;;;;;5063773;28;20100;-82
2022/10/15 01:49:23;;;;;;;43.92;24.20;;;12.40;98.30;;;;;;5074480;28;20020;-82
2022/10/15 01:51:50;;;;;;;45.80;23.60;;;12.50;98.40;;;;;;5057046;28;20477;-82
2022/10/15 01:54:18;;;;;;;54.33;24.70;;;12.50;98.40;;;;;;5071596;28;20107;-82
2022/10/15 01:56:48;;;;;;;49.17;24.58;;;12.50;98.40;;;;;;5062982;28;20062;-82
2022/10/15 01:59:16;;;;;;;51.22;24.70;;;12.50;98.40;;;;;;5062935;28;20098;-81
2022/10/15 02:01:42;;;;;;;47.58;24.02;;;12.50;98.50;;;;;;5074721;28;20436;-81
2022/10/15 02:04:23;;;;;;;54.85;23.98;;;12.40;98.50;;;;;;5077553;28;20464;-82
2022/10/15 02:06:54;;;;;;;51.87;24.93;;;12.50;98.70;;;;;;5071049;28;20134;-82
2022/10/15 02:09:30;;;;;;;50.60;23.92;;;12.50;98.70;;;;;;5065271;28;20078;-82
2022/10/15 02:12:25;;;;;;;51.38;25.17;;;12.50;98.70;;;;;;5066260;28;20040;-82
2022/10/15 02:15:06;;;;;;;54.22;25.55;;;12.50;98.70;;;;;;5067763;28;20475;-81
2022/10/15 02:17:42;;;;;;;;;;;12.50;98.80;;;;;;5079928;28;20353;-81
2022/10/15 02:20:16;;;;;;;57.08;24.63;;;12.50;98.80;;;;;;5080591;28;19959;-81
2022/10/15 02:22:59;;;;;;;54.35;26.85;;;12.60;98.80;;;;;;5069736;28;20044;-81
2022/10/15 02:25:27;;;;;;;54.15;25.30;;;12.60;98.80;;;;;;5064038;28;20024;-81
2022/10/15 02:27:55;;;;;;;61.25;27.40;;;12.60;98.80;;;;;;5065119;28;20095;-81
2022/10/15 02:30:21;;;;;;;62.63;27.45;;;12.60;98.80;;;;;;5069325;28;20024;-80
2022/10/15 02:32:53;;;;;;;59.03;26.80;;;12.60;98.80;;;;;;5076131;28;20126;-81
2022/10/15 02:35:20;;;;;;;61.05;27.00;;;12.60;98.80;;;;;;5074228;28;20045;-81
2022/10/15 02:37:49;;;;;;;63.60;28.70;;;12.60;98.90;;;;;;5063470;28;20087;-81
2022/10/15 02:40:15;;;;;;;64.45;29.50;;;12.60;98.90;;;;;;5068550;28;20020;-80
2022/10/15 02:42:40;;;;;;;70.35;30.13;;;12.60;98.90;;;;;;5066400;28;20087;-81
2022/10/15 02:45:06;;;;;;;68.93;30.13;;;12.60;99.00;;;;;;5070792;28;20124;-80
2022/10/15 02:47:32;;;;;;;69.85;30.13;;;12.60;99.00;;;;;;5069805;28;20037;-81
2022/10/15 02:49:57;;;;;;;64.28;28.38;;;12.60;99.00;;;;;;5082326;28;20032;-80
2022/10/15 02:52:23;;;;;;;66.20;27.40;;;12.50;99.00;;;;;;5068744;28;20299;-81
2022/10/15 02:54:48;;;;;;;65.80;30.15;;;12.50;99.10;;;;;;5067437;28;20089;-80
2022/10/15 02:57:14;;;;;;;64.30;28.60;;;12.50;99.10;;;;;;5076392;28;20420;-81
2022/10/15 02:59:39;;;;;;;65.47;28.17;;;12.50;99.10;;;;;;5082585;28;20134;-81
2022/10/15 03:02:05;;;;;;;64.63;27.60;;;12.50;99.20;;;;;;5076870;28;20108;-82
2022/10/15 03:04:30;;;;;;;62.97;28.20;;;12.50;99.20;;;;;;5064719;28;20082;-81
2022/10/15 03:06:56;;;;;;;67.78;26.90;;;12.50;99.20;;;;;;5071717;28;20134;-82
2022/10/15 03:09:21;;;;;;;61.75;28.02;;;12.40;99.20;;;;;;5060680;28;20032;-81
2022/10/15 03:11:47;;;;;;;64.05;27.08;;;12.50;99.20;;;;;;5067096;28;20469;-80
2022/10/15 03:14:12;;;;;;;61.13;27.45;;;12.40;99.20;;;;;;5071278;28;20036;-81
2022/10/15 03:16:37;;;;;;;64.35;28.52;;;12.40;99.30;;;;;;5068687;28;20441;-80
2022/10/15 03:19:03;;;;;;;64.70;28.63;;;12.40;99.20;;;;;;5070185;28;20123;-80
2022/10/15 03:21:29;;;;;;;63.17;27.90;;;12.40;99.20;;;;;;5063453;28;20078;-79
2022/10/15 03:23:58;;;;;;;65.70;26.38;;;12.30;99.20;;;;;;5069911;28;20473;-81
2022/10/15 03:26:24;;;;;;;62.90;27.17;;;12.30;99.10;;;;;;5069602;28;20032;-80
2022/10/15 03:28:49;;;;;;;63.42;27.33;;;12.30;99.10;;;;;;5069656;28;20052;-81
2022/10/15 03:31:15;;;;;;;63.88;28.92;;;12.20;99.10;;;;;;5070261;28;20496;-80
2022/10/15 03:33:40;;;;;;;62.33;27.63;;;12.30;99.10;;;;;;5069495;28;20027;-80
2022/10/15 03:36:06;;;;;;;61.35;26.52;;;12.20;99.00;;;;;;5069842;28;20116;-80
2022/10/15 03:38:32;;;;;;;60.47;28.48;;;12.20;99.00;;;;;;5063836;28;20062;-80
2022/10/15 03:40:57;;;;;;;64.97;27.83;;;12.20;99.00;;;;;;5067272;28;20028;-80
2022/10/15 03:43:24;;;;;;;65.95;29.02;;;12.20;99.00;;;;;;5070349;28;20073;-79
2022/10/15 03:45:50;;;;;;;58.80;27.33;;;12.10;99.00;;;;;;5070253;28;20039;-80
2022/10/15 03:48:16;;;;;;;60.65;27.88;;;12.10;98.90;;;;;;5068030;28;20029;-80
2022/10/15 03:50:41;;;;;;;57.88;27.30;;;12.10;98.90;;;;;;5070780;28;20063;-80
2022/10/15 03:53:06;;;;;;;60.30;25.63;;;12.10;98.90;;;;;;5069679;28;20188;-80
2022/10/15 03:55:32;;;;;;;61.75;27.45;;;12.00;98.90;;;;;;5068342;28;20039;-80
2022/10/15 03:57:58;;;;;;;58.38;26.58;;;12.00;98.90;;;;;;5066873;28;20117;-80
2022/10/15 04:00:24;;;;;;;67.63;27.92;;;12.00;98.80;;;;;;5069892;28;20033;-80
2022/10/15 04:02:49;;;;;;;65.85;27.95;;;12.00;98.90;;;;;;5066735;28;20036;-80
2022/10/15 04:05:14;;;;;;;67.32;27.85;;;12.00;98.90;;;;;;5070565;28;20347;-80
2022/10/15 04:07:41;;;;;;;66.38;26.70;;;12.00;98.90;;;;;;5065124;28;20033;-80
2022/10/15 04:10:07;;;;;;;66.28;29.02;;;12.00;98.90;;;;;;5069651;28;20024;-80
2022/10/15 04:12:33;;;;;;;66.95;28.35;;;11.90;98.80;;;;;;5058495;28;20429;-81
2022/10/15 04:14:58;;;;;;;61.72;26.90;;;12.00;98.90;;;;;;5062430;28;20082;-80
2022/10/15 04:17:23;;;;;;;62.95;26.70;;;12.00;98.90;;;;;;5063907;28;20064;-80
2022/10/15 04:19:49;;;;;;;55.42;25.98;;;11.90;98.80;;;;;;5070227;28;20036;-80
2022/10/15 04:22:14;;;;;;;66.32;26.58;;;11.90;98.80;;;;;;5065819;28;20060;-81
2022/10/15 04:24:40;;;;;;;60.67;24.30;;;11.90;98.70;;;;;;5068987;28;20031;-80
2022/10/15 04:27:06;;;;;;;59.60;24.27;;;11.90;98.70;;;;;;5066876;28;20109;-81
2022/10/15 04:29:31;;;;;;;53.97;22.13;;;11.90;98.70;;;;;;5066431;28;20340;-71
2022/10/15 04:31:57;;;;;;;55.17;23.08;;;11.80;98.50;;;;;;5063525;28;20036;-70
2022/10/15 04:34:22;;;;;;;55.65;23.15;;;11.80;98.40;;;;;;5060029;28;20033;-71
2022/10/15 04:36:48;;;;;;;53.25;22.88;;;11.80;98.40;;;;;;5064212;28;20324;-70
2022/10/15 04:39:14;;;;;;;56.20;24.52;;;11.80;98.30;;;;;;5064679;28;20025;-70
2022/10/15 04:41:40;;;;;;;65.45;25.02;;;11.80;98.40;;;;;;5068996;28;20025;-70
2022/10/15 04:44:05;;;;;;;60.10;26.02;;;11.80;98.40;;;;;;5068007;28;20354;-70
2022/10/15 04:46:31;;;;;;;57.22;24.80;;;11.80;98.40;;;;;;5056666;28;20040;-70
2022/10/15 04:48:57;;;;;;;59.40;25.02;;;11.80;98.40;;;;;;5067522;28;20108;-70
2022/10/15 04:51:24;;;;;;;49.65;22.40;;;11.70;98.40;;;;;;5066901;28;20119;-71
2022/10/15 04:53:50;;;;;;;56.60;24.27;;;11.70;98.50;;;;;;5068221;28;20036;-71
2022/10/15 04:56:18;;;;;;;55.53;24.80;;;11.70;98.40;;;;;;5066110;28;20085;-70
2022/10/15 04:58:45;;;;;;;60.58;25.45;;;11.70;98.40;;;;;;5064446;28;20044;-71
2022/10/15 05:01:14;;;;;;;59.15;25.17;;;11.80;98.40;;;;;;5065219;28;20048;-71
2022/10/15 05:03:42;;;;;;;55.22;24.67;;;11.80;98.40;;;;;;5061091;28;20135;-70
2022/10/15 05:06:10;;;;;;;54.80;25.00;;;11.70;98.40;;;;;;5068246;28;20028;-70
2022/10/15 05:08:36;;;;;;;55.38;24.10;;;11.70;98.40;;;;;;5064698;28;20725;-70
2022/10/15 05:11:04;;;;;;;55.60;24.00;;;11.70;98.40;;;;;;5068273;28;20094;-70
2022/10/15 05:13:30;;;;;;;52.72;24.17;;;11.70;98.40;;;;;;5074499;28;20137;-70
2022/10/15 05:15:56;;;;;;;61.00;25.85;;;11.70;98.40;;;;;;5070606;28;20033;-71
2022/10/15 05:18:22;;;;;;;61.33;25.35;;;11.70;98.40;;;;;;5059098;28;20057;-70
2022/10/15 05:20:47;;;;;;;53.20;24.10;;;11.70;98.50;;;;;;5061445;28;20044;-70
2022/10/15 05:23:13;;;;;;;64.63;26.63;;;11.70;98.40;;;;;;5058947;28;20437;-70
2022/10/15 05:25:38;;;;;;;57.55;25.02;;;11.70;98.40;;;;;;5062363;28;20031;-70
2022/10/15 05:28:04;;;;;;;59.17;25.67;;;11.70;98.40;;;;;;5058567;28;20037;-70
2022/10/15 05:30:31;;;;;;;59.00;24.98;;;11.70;98.40;;;;;;5074337;28;20424;-69
2022/10/15 05:32:57;;;;;;;58.80;25.83;;;11.70;98.30;;;;;;5055474;28;20087;-69
2022/10/15 05:35:23;;;;;;;64.22;25.45;;;11.70;98.40;;;;;;5064011;28;20440;-68
2022/10/15 05:37:48;;;;;;;59.28;26.55;;;11.70;98.40;;;;;;5064388;28;20055;-69
2022/10/15 05:40:14;;;;;;;58.08;26.48;;;11.70;98.30;;;;;;5078878;28;20380;-68
2022/10/15 05:42:40;;;;;;;58.08;25.50;;;11.70;98.30;;;;;;5074477;28;20115;-68
2022/10/15 05:45:06;;;;;;;55.67;25.83;;;11.70;98.40;;;;;;5073294;28;20024;-66
2022/10/15 05:47:31;;;;;;;55.97;25.23;;;11.70;98.30;;;;;;5071345;28;20025;-69
2022/10/15 05:49:57;;;;;;;55.25;25.60;;;11.70;98.30;;;;;;5080974;28;20089;-67
2022/10/15 05:52:22;;;;;;;57.70;25.00;;;11.70;98.20;;;;;;5072993;28;20044;-67
2022/10/15 05:54:48;;;;;;;48.97;23.67;;;11.70;98.20;;;;;;5066518;28;20025;-69
2022/10/15 05:57:13;;;;;;;53.13;24.33;;;11.70;98.10;;;;;;5062933;28;20025;-69
2022/10/15 05:59:39;;;;;;;53.42;25.05;;;11.70;98.10;;;;;;5068461;28;20068;-67
2022/10/15 06:02:05;;;;;;;49.08;23.48;;;11.70;98.10;;;;;;5065277;28;20017;-66
2022/10/15 06:04:31;;;;;;;51.38;23.98;;;11.70;98.10;;;;;;5061686;28;20036;-66
2022/10/15 06:06:56;;;;;;;51.80;24.65;;;11.70;98.10;;;;;;5063650;28;20093;-67
2022/10/15 06:09:22;;;;;;;54.53;24.17;;;11.70;98.10;;;;;;5063559;28;20088;-67
2022/10/15 06:11:48;;;;;;;52.20;24.55;;;11.60;98.10;;;;;;5058783;28;20418;-68
2022/10/15 06:14:13;;;;;;;54.78;24.45;;;11.70;98.10;;;;;;5067015;28;20044;-67
2022/10/15 06:16:38;;;;;;;53.50;25.02;;;11.70;98.10;;;;;;5066514;28;20044;-67
2022/10/15 06:19:05;;;;;;;57.72;25.25;;;11.70;98.10;;;;;;5062844;28;20112;-68
2022/10/15 06:21:30;;;;;;;51.95;24.77;;;11.80;98.10;;;;;;5068260;28;20048;-70
2022/10/15 06:23:56;;;;;;;56.85;24.75;;;11.80;98.10;;;;;;5055037;28;20064;-66
2022/10/15 06:26:21;;;;;;;53.20;24.08;;;11.80;98.10;;;;;;5064039;28;20074;-67
2022/10/15 06:28:47;;;;;;;53.58;23.98;;;11.80;98.00;;;;;;5059134;28;20033;-68
2022/10/15 06:31:12;;;;;;;50.53;23.02;;;11.90;98.00;;;;;;5054850;28;20028;-67
2022/10/15 06:33:38;;;;;;;55.92;24.27;;;11.80;97.90;;;;;;5067396;28;20036;-67
2022/10/15 06:36:06;;;;;;;50.05;23.02;;;12.00;98.00;;;;;;5075783;28;20460;-67
2022/10/15 06:38:32;;;;;;;54.90;22.52;;;12.00;97.90;;;;;;5073462;28;20028;-68
2022/10/15 06:40:57;;;;;;;50.97;23.50;;;12.00;97.80;;;;;;5061165;28;20142;-71
2022/10/15 06:43:23;;;;;;;49.83;23.30;;;12.00;97.80;;;;;;5060317;28;20082;-67
2022/10/15 06:45:49;;;;;;;50.40;22.15;;;12.00;97.70;;;;;;5064159;28;20029;-67
2022/10/15 06:48:14;;;;;;;49.20;23.00;;;12.00;97.70;;;;;;5076706;28;20109;-68
2022/10/15 06:50:40;;;;;;;47.10;22.98;;;12.00;97.60;;;;;;5072608;28;20079;-69
2022/10/15 06:53:06;;;;;;;52.40;22.95;;;12.00;97.40;;;;;;5061734;28;20020;-67
2022/10/15 06:55:32;;;;;;;55.15;23.10;;;12.00;97.40;;;;;;5061371;28;20120;-68
2022/10/15 06:57:58;;;;;;;44.72;20.48;;;12.10;97.40;;;;;;5063075;28;20493;-67
2022/10/15 07:00:24;;;;;;;50.13;22.00;;;12.10;97.30;;;;;;5066173;28;20129;-67
2022/10/15 07:02:50;;;;;;;46.63;21.60;;;12.10;97.20;;;;;;5062046;28;20032;-67
2022/10/15 07:05:16;;;;;;;45.63;21.17;;;12.10;97.20;;;;;;5067371;28;20035;-69
2022/10/15 07:07:42;;;;;;;49.03;21.77;;;12.10;97.10;;;;;;5059400;28;20127;-68
2022/10/15 07:10:08;;;;;;;48.95;22.55;;;12.20;97.10;;;;;;5065996;28;20033;-67
2022/10/15 07:12:34;;;;;;;45.15;20.92;;;12.20;97.10;;;;;;5057875;28;20064;-66
2022/10/15 07:14:59;;;;;;;49.75;22.33;;;12.30;97.10;;;;;;5065737;28;20035;-68
2022/10/15 07:17:25;;;;;;;49.65;21.15;;;12.30;97.10;;;;;;5068162;28;20345;-67
2022/10/15 07:19:50;;;;;;;47.25;21.13;;;12.40;97.00;;;;;;5058438;28;20025;-68
2022/10/15 07:22:16;;;;;;;44.78;21.35;;;12.50;97.00;;;;;;5067546;28;20361;-68
2022/10/15 07:24:42;;;;;;;50.22;21.60;;;12.40;96.80;;;;;;5063677;28;20082;-68
2022/10/15 07:27:07;;;;;;;48.75;22.45;;;12.40;96.60;;;;;;5066768;28;20036;-67
2022/10/15 07:29:33;;;;;;;40.47;21.25;;;12.40;96.50;;;;;;5071591;28;20028;-67
2022/10/15 07:31:58;;;;;;;44.53;21.10;;;12.40;96.40;;;;;;5067830;28;20183;-67
2022/10/15 07:34:24;;;;;;;47.30;20.38;;;12.40;96.40;;;;;;5063944;28;20024;-68
2022/10/15 07:36:49;;;;;;;45.22;20.25;;;12.30;96.40;;;;;;5061404;28;20059;-73
2022/10/15 07:39:17;;;;;;;46.92;20.75;;;12.40;96.60;;;;;;5066123;28;20439;-67
2022/10/15 07:41:43;;;;;;;49.13;21.33;;;12.50;96.50;;;;;;5064581;28;20036;-67
2022/10/15 07:44:09;;;;;;;43.72;20.17;;;12.40;96.20;;;;;;5071033;28;20028;-70
2022/10/15 07:46:34;;;;;;;49.20;21.58;;;12.40;96.00;;;;;;5062325;28;20409;-66
2022/10/15 07:49:00;;;;;;;44.90;21.20;;;12.30;96.00;;;;;;5072377;28;20130;-66
2022/10/15 07:51:26;;;;;;;45.70;21.58;;;12.50;96.00;;;;;;5049366;28;20036;-66
2022/10/15 07:53:51;;;;;;;48.08;22.45;;;12.50;96.00;;;;;;5066113;28;20350;-68
2022/10/15 07:56:18;;;;;;;44.67;21.42;;;12.50;96.00;;;;;;5068932;28;20031;-67
2022/10/15 07:58:50;;;;;;;47.70;21.85;;;12.60;96.00;;;;;;5069878;28;20031;-69
2022/10/15 08:01:16;;;;;;;47.97;21.58;;;12.60;95.90;;;;;;5049991;28;20031;-69
2022/10/15 08:03:42;;;;;;;47.78;22.35;;;12.70;95.70;;;;;;5075251;28;20028;-68
2022/10/15 08:06:07;;;;;;;41.10;21.33;;;12.90;95.60;;;;;;5066265;28;20351;-68
2022/10/15 08:08:34;;;;;;;39.95;20.13;;;12.90;95.30;;;;;;5066695;28;20040;-68
2022/10/15 08:11:11;;;;;;;40.22;19.63;;;13.00;95.20;;;;;;5062779;28;20056;-68
2022/10/15 08:13:40;;;;;;;43.67;21.40;;;13.00;95.10;;;;;;5068614;28;20032;-68
2022/10/15 08:16:05;;;;;;;41.75;20.40;;;13.00;94.90;;;;;;5066883;28;20435;-69
2022/10/15 08:18:31;;;;;;;42.95;19.88;;;13.00;94.90;;;;;;5069302;28;20407;-69
2022/10/15 08:21:00;;;;;;;40.25;20.80;;;12.90;94.60;;;;;;5052522;28;20028;-67
2022/10/15 08:23:25;;;;;;;43.60;20.30;;;12.90;95.00;;;;;;5070261;28;20364;-67
2022/10/15 08:25:51;;;;;;;41.40;20.58;;;13.00;95.00;;;;;;5063317;28;20036;-67
2022/10/15 08:28:16;;;;;;;37.08;19.95;;;12.90;94.80;;;;;;5058193;28;20308;-69
2022/10/15 08:30:42;;;;;;;36.53;18.23;;;13.00;94.90;;;;;;5070151;28;20086;-67
2022/10/15 08:33:07;;;;;;;38.08;19.73;;;13.20;94.80;;;;;;5062873;28;20030;-68
2022/10/15 08:35:35;;;;;;;39.53;19.83;;;13.30;94.30;;;;;;5068840;28;20028;-69
2022/10/15 08:38:01;;;;;;;36.78;19.00;;;13.40;93.80;;;;;;5070160;28;20514;-70
2022/10/15 08:40:28;;;;;;;36.83;19.40;;;13.60;93.60;;;;;;5068120;28;20411;-67
2022/10/15 08:42:54;;;;;;;33.58;17.80;;;13.80;92.90;;;;;;5076901;28;20103;-68
2022/10/15 08:45:30;;;;;;;31.60;16.77;;;13.60;92.10;;;;;;5050012;28;20184;-67
2022/10/15 08:48:03;;;;;;;34.72;18.00;;;13.50;92.30;;;;;;5068905;28;20027;-67
2022/10/15 08:50:40;;;;;;;40.35;19.63;;;13.70;93.00;;;;;;5069742;28;20017;-67
2022/10/15 08:53:11;;;;;;;37.60;19.30;;;13.70;92.40;;;;;;5068663;28;20111;-67
2022/10/15 08:55:38;;;;;;;;;;;14.00;92.90;;;;;;5072322;28;20035;-67
2022/10/15 08:58:18;;;;;;;36.33;16.23;;;14.20;92.20;;;;;;5068736;28;19916;-67
2022/10/15 09:00:50;;;;;;;32.97;17.40;;;14.30;91.60;;;;;;5061922;28;20086;-68
2022/10/15 09:03:31;;;;;;;34.47;16.13;;;14.20;91.10;;;;;;5064488;28;20467;-69
2022/10/15 09:06:13;;;;;;;31.17;14.95;;;14.10;90.50;;;;;;5067365;28;20168;-68
2022/10/15 09:08:59;;;;;;;27.63;14.98;;;14.20;89.90;;;;;;5079671;28;20378;-67
2022/10/15 09:11:43;;;;;;;33.28;15.80;;;14.30;90.30;;;;;;5058091;28;20044;-67
2022/10/15 09:14:18;;;;;;;29.75;14.73;;;13.90;90.40;;;;;;5068337;28;20416;-68
2022/10/15 09:16:47;;;;;;;34.00;16.83;;;13.70;91.40;;;;;;5049721;28;20032;-67
2022/10/15 09:19:22;;;;;;;31.48;16.67;;;14.00;91.40;;;;;;5059201;28;20024;-71
2022/10/15 09:21:49;;;;;;;29.17;16.70;;;14.30;91.40;;;;;;5066267;28;20024;-67
2022/10/15 09:24:24;;;;;;;35.08;16.95;;;14.50;90.80;;;;;;5068103;28;20368;-68
2022/10/15 09:27:05;;;;;;;32.13;16.05;;;14.60;90.30;;;;;;5066798;28;20059;-67
2022/10/15 09:29:44;;;;;;;27.33;15.00;;;14.60;89.70;;;;;;5069277;28;20020;-67
2022/10/15 09:32:17;;;;;;;32.63;16.25;;;15.00;89.10;;;;;;5065961;28;20033;-68
2022/10/15 09:35:19;;;;;;;31.17;15.77;;;15.00;89.10;;;;;;5059446;28;20110;-68
2022/10/15 09:37:47;;;;;;;;;;;14.80;89.20;;;;;;5060529;28;20444;-69
2022/10/15 09:40:28;;;;;;;30.65;15.45;;;14.90;89.30;;;;;;5065983;28;19920;-67
2022/10/15 09:42:55;;;;;;;;;;;14.80;89.20;;;;;;5058069;28;20025;-67
2022/10/15 09:45:23;;;;;;;;;;;14.90;89.10;;;;;;5050339;28;19904;-68
2022/10/15 09:47:48;;;;;;;;;;;15.10;88.30;;;;;;5068031;28;19940;-68
2022/10/15 09:50:14;;;;;;;;;;;15.20;88.50;;;;;;5070521;28;20318;-67
2022/10/15 09:52:55;;;;;;;;;;;15.30;87.80;;;;;;5065174;28;19998;-68
2022/10/15 09:55:26;;;;;;;;;;;15.10;87.40;;;;;;5068582;28;19959;-67
2022/10/15 09:57:53;;;;;;;;;;;15.10;87.40;;;;;;5066150;28;20030;-71
2022/10/15 10:00:19;;;;;;;;;;;15.30;87.90;;;;;;5069009;28;19904;-67
2022/10/15 10:03:01;;;;;;;;;;;15.40;87.30;;;;;;5067715;28;20185;-68
2022/10/15 10:05:28;;;;;;;;;;;15.30;87.30;;;;;;5075564;28;20000;-70
2022/10/15 10:08:12;;;;;;;;;;;15.30;87.50;;;;;;5066011;28;19901;-69
2022/10/15 10:10:38;;;;;;;;;;;15.30;86.50;;;;;;5054485;28;19900;-68
2022/10/15 10:13:06;;;;;;;;;;;15.30;86.50;;;;;;5068977;28;20275;-67
2022/10/15 10:15:33;;;;;;;;;;;15.20;86.30;;;;;;5068994;28;19927;-67
2022/10/15 10:17:58;;;;;;;;;;;15.20;86.20;;;;;;5067582;28;19991;-67
2022/10/15 10:20:28;;;;;;;;;;;15.20;86.70;;;;;;5069196;28;20007;-69
2022/10/15 10:22:55;;;;;;;;;;;15.30;86.00;;;;;;5070487;28;19920;-69
2022/10/15 10:25:27;;;;;;;;;;;15.30;86.70;;;;;;5045375;28;19904;-68
2022/10/15 10:27:54;;;;;;;;;;;15.50;86.80;;;;;;5068229;28;19908;-67
2022/10/15 10:30:19;;;;;;;;;;;15.50;86.70;;;;;;5066998;28;20006;-68
2022/10/15 10:32:45;;;;;;;;;;;15.70;86.50;;;;;;5074972;28;20054;-68
2022/10/15 10:35:21;;;;;;;;;;;15.60;85.10;;;;;;5068405;28;19900;-66
2022/10/15 10:37:47;;;;;;;;;;;16.00;85.30;;;;;;5069077;28;19908;-67
2022/10/15 10:40:42;;;;;;;;;;;15.80;83.90;;;;;;5075639;28;19916;-67
2022/10/15 10:43:16;;;;;;;;;;;16.10;85.40;;;;;;5048140;28;19908;-68
2022/10/15 10:45:51;;;;;;;;;;;16.70;84.70;;;;;;5070481;28;19956;-68
2022/10/15 10:48:18;;;;;;;;;;;16.70;83.10;;;;;;5067463;28;19905;-67
2022/10/15 10:50:44;;;;;;;;;;;16.80;83.20;;;;;;5070861;28;19991;-67
2022/10/15 10:53:22;;;;;;;;;;;16.90;82.30;;;;;;5069575;28;20277;-67
2022/10/15 10:55:49;;;;;;;;;;;17.10;82.90;;;;;;5068667;28;19914;-67
2022/10/15 10:58:17;;;;;;;;;;;17.30;81.70;;;;;;5071477;28;19954;-67
2022/10/15 11:00:47;;;;;;;;;;;17.40;79.90;;;;;;5072274;28;19912;-67
2022/10/15 11:03:19;;;;;;;;;;;17.30;79.10;;;;;;5051891;28;19919;-68
2022/10/15 11:05:46;;;;;;;;;;;17.60;80.70;;;;;;5060983;28;19965;-68
2022/10/15 11:08:17;;;;;;;;;;;17.80;78.90;;;;;;5078600;28;19928;-68
2022/10/15 11:10:49;;;;;;;;;;;18.00;76.40;;;;;;5070882;28;19900;-68
2022/10/15 11:13:25;;;;;;;;;;;18.00;76.40;;;;;;5071953;28;19904;-67
2022/10/15 11:16:01;;;;;;;;;;;17.90;76.30;;;;;;5063604;28;19905;-67
2022/10/15 11:18:47;;;;;;;;;;;17.60;77.20;;;;;;5067943;28;19935;-68
2022/10/15 11:21:13;;;;;;;;;;;18.10;78.40;;;;;;5078816;28;20323;-67
2022/10/15 11:23:48;;;;;;;;;;;18.60;76.00;;;;;;5072451;28;19950;-68
2022/10/15 11:26:23;;;;;;;;;;;18.90;76.40;;;;;;5070486;28;19900;-67
2022/10/15 11:29:01;;;;;;;;;;;18.30;74.90;;;;;;5060787;28;19978;-67
2022/10/15 11:31:40;;;;;;;;;;;18.10;75.70;;;;;;5067524;28;19916;-67
2022/10/15 11:34:11;;;;;;;;;;;18.20;75.50;;;;;;5066458;28;19961;-71
2022/10/15 11:36:39;;;;;;;;;;;18.50;72.30;;;;;;5072321;28;19908;-68
2022/10/15 11:39:29;;;;;;;;;;;18.50;72.50;;;;;;5071715;28;19908;-69
2022/10/15 11:42:13;;;;;;;;;;;18.40;71.70;;;;;;5071359;28;20039;-66
2022/10/15 11:44:50;;;;;;;;;;;18.50;72.00;;;;;;5071562;28;19957;-66
2022/10/15 11:47:37;;;;;;;;;;;18.90;73.10;;;;;;5069042;28;20014;-66
2022/10/15 11:50:15;;;;;;;;;;;18.80;71.90;;;;;;5070307;28;20255;-67
2022/10/15 11:52:59;;;;;;;;;;;19.20;70.70;;;;;;5057633;28;19908;-66
2022/10/15 11:55:31;;;;;;;;;;;19.10;69.70;;;;;;5070840;28;20529;-67
2022/10/15 11:57:59;;;;;;;;;;;19.30;70.20;;;;;;5071172;28;19916;-65
2022/10/15 12:00:36;;;;;;;;;;;18.90;70.00;;;;;;5071203;28;19995;-66
2022/10/15 12:03:06;;;;;;;;;;;19.30;69.30;;;;;;5050461;28;19935;-67
2022/10/15 12:05:37;;;;;;;;;;;19.70;69.70;;;;;;5077160;28;20351;-66
2022/10/15 12:08:02;;;;;;;;;;;19.80;67.90;;;;;;5059987;28;20206;-66
2022/10/15 12:10:38;;;;;;;;;;;20.00;67.80;;;;;;5070193;28;19904;-69
2022/10/15 12:13:24;;;;;;;;;;;20.30;68.00;;;;;;5065576;28;19988;-66
2022/10/15 12:15:59;;;;;;;;;;;20.30;67.00;;;;;;5069634;28;19908;-66
2022/10/15 12:18:41;;;;;;;;;;;20.70;65.40;;;;;;5071081;28;20128;-67
2022/10/15 12:21:25;;;;;;;;;;;20.40;65.30;;;;;;5051969;28;20255;-67
2022/10/15 12:23:50;;;;;;;;;;;20.30;66.00;;;;;;5069234;28;20033;-68
2022/10/15 12:26:22;;;;;;;;;;;20.20;65.40;;;;;;5063708;28;20037;-67
2022/10/15 12:28:48;;;;;;;;;;;19.50;67.20;;;;;;5068705;28;19999;-65
2022/10/15 12:31:14;;;;;;;;;;;19.20;69.00;;;;;;5069063;28;19901;-66
2022/10/15 12:33:47;;;;;;;;;;;19.00;70.10;;;;;;5069937;28;19915;-66
2022/10/15 12:36:29;;;;;;;;;;;18.50;70.60;;;;;;5073427;28;20274;-65
2022/10/15 12:39:02;;;;;;;;;;;18.00;71.10;;;;;;5070298;28;19904;-66
2022/10/15 12:41:37;;;;;;;;;;;17.70;72.90;;;;;;5055821;28;19904;-66
2022/10/15 12:44:04;;;;;;;;;;;17.70;73.30;;;;;;5076517;28;19919;-66
2022/10/15 12:46:37;;;;;;;;;;;17.50;73.80;;;;;;5073243;28;19938;-65
2022/10/15 12:49:22;;;;;;;;;;;17.40;74.40;;;;;;5070516;28;20212;-65
2022/10/15 12:51:48;;;;;;;;;;;17.30;75.60;;;;;;5070307;28;19908;-66
2022/10/15 12:54:46;;;;;;;;;;;17.20;75.70;;;;;;5067682;28;19904;-67
2022/10/15 12:57:29;;;;;;;;;;;17.00;76.60;;;;;;5035056;28;20309;-65
2022/10/15 12:59:57;;;;;;;;;;;16.80;77.20;;;;;;5067551;28;20312;-66
2022/10/15 13:02:34;;;;;;;;;;;16.80;78.20;;;;;;5068655;28;19987;-66
2022/10/15 13:05:00;;;;;;;;;;;16.80;78.90;;;;;;5058299;28;20047;-66
2022/10/15 13:07:25;;;;;;;;;;;16.80;79.20;;;;;;5069926;28;20067;-66